TimeCDT,TemperatureF,Dew PointF,Humidity,Sea Level PressureIn,VisibilityMPH,Wind Direction,Wind SpeedMPH,Gust SpeedMPH,PrecipitationIn,Events,Conditions,WindDirDegrees,DateUTC
12:45 AM,33.8,26.6,75,30.14,10.0,North,12.7,-,N/A,,Overcast,10,2012-11-01 05:45:00
12:55 AM,34.5,27.1,74,30.14,10.0,North,15.0,-,N/A,,Overcast,10,2012-11-01 05:55:00
1:55 AM,32.7,25.5,75,30.15,10.0,NNE,15.0,-,N/A,,Overcast,20,2012-11-01 06:55:00
2:55 AM,31.1,24.6,77,30.16,10.0,North,17.3,-,N/A,,Overcast,10,2012-11-01 07:55:00
3:55 AM,29.7,23.4,77,30.16,10.0,North,13.8,21.9,N/A,,Overcast,360,2012-11-01 08:55:00
4:55 AM,29.5,23.0,77,30.17,10.0,North,13.8,18.4,N/A,,Overcast,10,2012-11-01 09:55:00
4:59 AM,30.2,23.0,75,30.17,10.0,North,13.8,18.4,N/A,,Overcast,10,2012-11-01 09:59:00
5:55 AM,29.7,21.4,71,30.18,10.0,North,12.7,-,N/A,,Overcast,360,2012-11-01 10:55:00
6:55 AM,28.6,20.8,73,30.18,10.0,North,13.8,-,N/A,,Overcast,10,2012-11-01 11:55:00
7:55 AM,27.5,18.9,70,30.19,10.0,North,16.1,23.0,N/A,,Overcast,10,2012-11-01 12:55:00
8:55 AM,26.8,18.5,71,30.20,10.0,NNE,16.1,25.3,N/A,,Overcast,30,2012-11-01 13:55:00
9:55 AM,27.3,18.5,69,30.20,10.0,NNE,17.3,-,N/A,,Overcast,30,2012-11-01 14:55:00
10:55 AM,27.7,18.3,68,30.21,10.0,North,17.3,20.7,N/A,,Overcast,360,2012-11-01 15:55:00
11:55 AM,28.0,18.7,68,30.20,10.0,NNE,12.7,21.9,N/A,,Overcast,30,2012-11-01 16:55:00
12:55 PM,28.9,19.8,69,30.21,10.0,North,13.8,20.7,N/A,,Overcast,10,2012-11-01 17:55:00
1:55 PM,28.8,19.9,70,30.17,10.0,NNE,11.5,-,N/A,,Overcast,30,2012-11-01 18:55:00
2:55 PM,29.5,20.3,69,30.17,10.0,North,9.2,-,N/A,,Overcast,10,2012-11-01 19:55:00
3:55 PM,30.2,20.7,68,30.17,10.0,NNE,11.5,-,N/A,,Overcast,20,2012-11-01 20:55:00
4:55 PM,30.4,21.0,68,30.16,10.0,NNE,11.5,-,N/A,,Overcast,30,2012-11-01 21:55:00
5:55 PM,30.4,21.0,68,30.16,10.0,NNE,9.2,-,N/A,,Overcast,20,2012-11-01 22:55:00
6:55 PM,30.2,21.9,71,30.17,10.0,NNE,12.7,-,N/A,,Overcast,30,2012-11-01 23:55:00
7:55 PM,29.8,21.4,71,30.17,10.0,NE,10.4,-,N/A,,Overcast,50,2012-11-02 00:55:00
8:55 PM,29.3,21.4,72,30.17,10.0,NE,11.5,-,N/A,,Overcast,50,2012-11-02 01:55:00
9:55 PM,29.1,21.9,74,30.17,10.0,NE,10.4,-,N/A,,Overcast,40,2012-11-02 02:55:00
10:37 PM,28.4,23.0,80,30.16,10.0,ENE,10.4,-,N/A,,Overcast,60,2012-11-02 03:37:00
10:55 PM,28.4,22.1,77,30.16,10.0,ENE,9.2,-,N/A,,Overcast,60,2012-11-02 03:55:00
11:55 PM,28.2,21.9,77,30.18,10.0,ENE,6.9,-,N/A,,Overcast,70,2012-11-02 04:55:00